Time;durP1;ratioP1;P1;durP2;ratioP2;P2;SDS_P1;SDS_P2;PMS_P1;PMS_P2;Temp;Humidity;BMP_temperature;BMP_pressure;BME280_temperature;BME280_humidity;BME280_pressure;Samples;Min_cycle;Max_cycle;Signal;HPM_P1;HPM_P2
2022/05/03 00:04:29;;;;;;;;;;;12.20;99.90;;;11.09;95.97;95386.78;10434421;28;1967;-70
2022/05/03 00:09:32;;;;;;;;;;;12.20;99.90;;;11.05;96.18;95383.03;10429353;28;1973;-69
2022/05/03 00:14:34;;;;;;;;;;;12.10;99.90;;;10.90;97.07;95385.91;10438179;28;1994;-71
2022/05/03 00:19:38;;;;;;;;;;;12.10;99.90;;;10.80;98.30;95384.91;10421984;28;2029;-70
2022/05/03 00:24:41;;;;;;;;;;;12.00;99.90;;;10.65;98.89;95390.44;10425457;28;1839;-70
2022/05/03 00:29:43;;;;;;;;;;;11.90;99.90;;;10.69;99.36;95382.63;10440531;28;2007;-69
2022/05/03 00:34:47;;;;;;;;;;;11.80;99.90;;;10.58;100.00;95389.97;10408382;28;2335;-69
2022/05/03 00:39:50;;;;;;;;;;;11.70;99.90;;;10.46;100.00;95379.59;10422015;28;1985;-68
2022/05/03 00:44:58;;;;;;;;;;;11.60;99.90;;;10.43;100.00;95376.66;10430805;28;1899;-68
2022/05/03 00:50:01;;;;;;;;;;;11.60;99.90;;;10.48;100.00;95377.41;10436814;28;2016;-70
2022/05/03 00:55:05;;;;;;;;;;;11.60;99.90;;;10.39;100.00;95370.25;10435994;28;2264;-68
2022/05/03 01:00:08;;;;;;;;;;;11.60;99.90;;;10.37;100.00;95367.03;10420535;28;1864;-68
2022/05/03 01:05:11;;;;;;;;;;;11.50;99.90;;;10.39;100.00;95359.50;10419534;28;1955;-68
2022/05/03 01:10:15;;;;;;;;;;;11.50;99.90;;;10.40;100.00;95367.28;10434924;28;1977;-69
2022/05/03 01:15:18;;;;;;;;;;;11.50;99.90;;;10.35;100.00;95372.69;10418648;28;1894;-68
2022/05/03 01:20:21;;;;;;;;;;;11.50;99.90;;;10.32;100.00;95367.09;10439612;28;1967;-69
2022/05/03 01:25:25;;;;;;;;;;;11.50;99.90;;;10.20;100.00;95362.84;10421037;28;1884;-69
2022/05/03 01:30:29;;;;;;;;;;;;;;;10.12;100.00;95360.78;10432637;28;2069;-69
2022/05/03 01:35:32;;;;;;;;;;;11.30;99.90;;;9.98;100.00;95355.22;10432017;28;1985;-68
2022/05/03 01:40:35;;;;;;;;;;;11.20;99.90;;;9.90;100.00;95355.00;10422620;28;1874;-68
2022/05/03 01:45:39;;;;;;;;;;;11.10;99.90;;;9.82;100.00;95359.09;10428124;28;2005;-68
2022/05/03 01:50:42;;;;;;;;;;;11.00;99.90;;;9.68;100.00;95356.22;10411948;28;2258;-68
2022/05/03 01:55:45;;;;;;;;;;;10.90;99.90;;;9.57;100.00;95364.63;10433775;28;1885;-68
2022/05/03 02:00:48;;;;;;;;;;;10.80;99.90;;;9.52;100.00;95360.06;10417169;28;1878;-69
2022/05/03 02:05:52;;;;;;;;;;;10.80;99.90;;;9.51;100.00;95360.34;10427269;28;2038;-69
2022/05/03 02:10:55;;;;;;;;;;;10.70;99.90;;;9.41;100.00;95362.00;10417581;28;1983;-70
2022/05/03 02:15:58;;;;;;;;;;;10.60;99.90;;;9.33;100.00;95356.41;10431581;28;1897;-70
2022/05/03 02:21:01;;;;;;;;;;;10.50;99.90;;;9.16;100.00;95359.41;10417506;28;2101;-69
2022/05/03 02:26:04;;;;;;;;;;;10.40;99.90;;;9.06;100.00;95360.28;10436687;28;1986;-68
2022/05/03 02:31:07;;;;;;;;;;;10.50;99.90;;;8.98;100.00;95358.16;10435067;28;1899;-70
2022/05/03 02:36:10;;;;;;;;;;;10.30;99.90;;;8.99;100.00;95367.00;10419918;28;1898;-70
2022/05/03 02:41:13;;;;;;;;;;;10.20;99.90;;;8.84;100.00;95365.16;10433485;28;1864;-70
2022/05/03 02:46:16;;;;;;;;;;;10.30;99.90;;;8.78;100.00;95375.13;10413938;28;1820;-69
2022/05/03 02:51:19;;;;;;;;;;;10.00;99.90;;;8.76;100.00;95369.19;10415763;28;1918;-70
2022/05/03 02:56:23;;;;;;;;;;;9.90;99.90;;;8.76;100.00;95371.88;10430756;28;1866;-69
2022/05/03 03:06:46;;;;;;;;;;;10.00;99.90;;;8.75;100.00;95377.53;10423265;28;2037;-68
2022/05/03 03:11:50;;;;;;;;;;;9.90;99.90;;;8.82;100.00;95375.34;10424947;28;1918;-69
2022/05/03 03:16:53;;;;;;;;;;;9.80;99.90;;;8.76;100.00;95365.72;10441988;28;2022;-69
2022/05/03 03:21:57;;;;;;;;;;;9.80;99.90;;;8.70;100.00;95366.81;10437105;28;1961;-68
2022/05/03 03:27:01;;;;;;;;;;;9.90;99.90;;;8.75;100.00;95370.28;10428419;28;1838;-69
2022/05/03 03:32:04;;;;;;;;;;;9.80;99.90;;;8.68;100.00;95368.97;10436698;28;1910;-69
2022/05/03 03:37:08;;;;;;;;;;;9.80;99.90;;;8.61;100.00;95370.03;10423923;28;1978;-69
2022/05/03 03:42:12;;;;;;;;;;;9.80;99.90;;;8.63;100.00;95378.59;10440264;28;1818;-69
2022/05/03 03:47:14;;;;;;;;;;;9.70;99.90;;;8.50;100.00;95381.03;10434536;28;2053;-69
2022/05/03 03:52:17;;;;;;;;;;;9.40;99.90;;;8.55;100.00;95381.84;10426221;28;1949;-68
2022/05/03 03:57:21;;;;;;;;;;;9.60;99.90;;;8.61;100.00;95388.81;10412111;28;2061;-69
2022/05/03 04:02:24;;;;;;;;;;;9.70;99.90;;;8.77;100.00;95383.41;10436343;28;1696;-70
2022/05/03 04:07:28;;;;;;;;;;;9.80;99.90;;;8.87;100.00;95378.03;10421176;28;1858;-67
2022/05/03 04:12:31;;;;;;;;;;;9.70;99.90;;;8.90;100.00;95383.63;10432109;28;1992;-69
2022/05/03 04:17:36;;;;;;;;;;;10.00;99.90;;;9.08;100.00;95381.44;10423168;28;1997;-69
2022/05/03 04:22:39;;;;;;;;;;;10.00;99.90;;;9.26;100.00;95380.06;10416926;28;1843;-68
2022/05/03 04:27:43;;;;;;;;;;;10.20;99.90;;;9.60;100.00;95386.31;10436810;28;1994;-69
2022/05/03 04:32:45;;;;;;;;;;;10.30;99.90;;;10.01;100.00;95383.41;10432610;28;1982;-70
2022/05/03 04:37:48;;;;;;;;;;;10.70;99.90;;;10.34;100.00;95389.91;10413178;28;1870;-68
2022/05/03 04:42:51;;;;;;;;;;;10.90;99.90;;;10.38;99.46;95384.78;10431277;28;1844;-68
2022/05/03 04:47:55;;;;;;;;;;;11.10;99.90;;;10.55;97.37;95388.63;10426196;28;1826;-68
2022/05/03 04:52:58;;;;;;;;;;;11.20;99.90;;;10.69;95.04;95391.50;10424460;28;1937;-69
2022/05/03 04:58:01;;;;;;;;;;;11.40;99.90;;;10.57;94.56;95393.75;10417549;28;2202;-68
2022/05/03 05:03:07;;;;;;;;;;;11.40;99.90;;;10.43;95.02;95393.59;10420225;28;1930;-68
2022/05/03 05:08:10;;;;;;;;;;;11.30;99.90;;;10.45;94.19;95396.78;10413118;28;1775;-69
2022/05/03 05:13:13;;;;;;;;;;;11.20;99.90;;;10.62;93.00;95393.69;10432064;28;2364;-70
2022/05/03 05:18:16;;;;;;;;;;;11.30;99.90;;;10.73;92.34;95395.19;10413646;28;1880;-70
2022/05/03 05:23:20;;;;;;;;;;;11.50;99.90;;;10.89;90.84;95395.88;10413713;28;1976;-68
2022/05/03 05:28:23;;;;;;;;;;;11.70;99.90;;;10.97;89.27;95402.50;10438871;28;1863;-69
2022/05/03 05:33:26;;;;;;;;;;;11.80;99.90;;;11.17;88.84;95406.84;10422609;28;2224;-68
2022/05/03 05:38:29;;;;;;;;;;;11.90;99.90;;;11.36;85.29;95403.13;10431118;28;1862;-69
2022/05/03 05:43:32;;;;;;;;;;;12.10;99.90;;;11.70;83.78;95406.75;10426305;28;1811;-69
2022/05/03 05:48:35;;;;;;;;;;;12.30;99.90;;;11.79;83.12;95408.53;10436702;28;1830;-70
2022/05/03 05:53:38;;;;;;;;;;;12.50;99.90;;;12.09;80.56;95398.47;10433606;28;1922;-68
2022/05/03 05:58:42;;;;;;;;;;;12.80;99.90;;;12.55;78.71;95409.31;10448814;28;1887;-68
2022/05/03 06:03:46;;;;;;;;;;;13.10;99.90;;;12.80;75.68;95420.78;10440621;28;1852;-70
2022/05/03 06:08:49;;;;;;;;;;;13.30;99.90;;;13.06;73.92;95413.03;10435121;28;1852;-69
2022/05/03 06:13:51;;;;;;;;;;;13.60;99.90;;;12.99;73.98;95413.44;10426811;28;1984;-69
2022/05/03 06:18:55;;;;;;;;;;;13.60;99.90;;;13.05;74.23;95408.75;10423698;28;2241;-70
2022/05/03 06:23:58;;;;;;;;;;;13.70;99.90;;;13.19;72.60;95412.25;10421591;28;1891;-69
2022/05/03 06:29:01;;;;;;;;;;;14.00;99.90;;;13.51;70.96;95412.19;10445294;28;1946;-69
2022/05/03 06:34:04;;;;;;;;;;;13.90;99.90;;;14.22;68.79;95422.59;10422931;28;1928;-70
2022/05/03 06:39:07;;;;;;;;;;;14.60;99.90;;;13.85;67.21;95421.75;10424755;28;2314;-69
2022/05/03 06:44:13;;;;;;;;;;;14.60;99.90;;;14.20;67.22;95422.09;10440099;28;2387;-69
2022/05/03 06:49:16;;;;;;;;;;;14.60;99.90;;;14.54;65.95;95429.72;10421161;28;1926;-70
2022/05/03 06:54:19;;;;;;;;;;;14.80;99.90;;;14.78;64.38;95427.50;10423544;28;2280;-70
2022/05/03 06:59:22;;;;;;;;;;;15.00;99.90;;;15.08;62.95;95434.06;10424030;28;2264;-69
2022/05/03 07:04:25;;;;;;;;;;;15.40;99.90;;;15.34;62.09;95441.53;10426735;28;1762;-68
2022/05/03 07:09:29;;;;;;;;;;;15.60;99.90;;;15.40;60.77;95432.97;10439917;28;2306;-69
2022/05/03 07:14:32;;;;;;;;;;;15.80;99.90;;;15.36;60.07;95431.19;10449317;28;1970;-70
2022/05/03 07:24:56;;;;;;;;;;;16.00;99.90;;;15.22;59.30;95438.59;10443132;28;1961;-69
2022/05/03 07:29:59;;;;;;;;;;;16.00;99.90;;;15.11;59.54;95438.06;10412143;28;2147;-70
2022/05/03 07:35:02;;;;;;;;;;;16.10;99.90;;;16.06;56.69;95435.72;10428299;28;2244;-69
2022/05/03 07:40:05;;;;;;;;;;;16.20;99.90;;;17.09;53.80;95431.41;10416351;28;1815;-69
2022/05/03 07:45:09;;;;;;;;;;;17.00;99.90;;;17.62;52.09;95430.13;10410146;28;1866;-67
2022/05/03 07:50:12;;;;;;;;;;;17.50;99.90;;;17.09;52.17;95431.41;10432057;28;1897;-68
2022/05/03 07:55:17;;;;;;;;;;;17.90;99.90;;;17.70;50.18;95432.03;10434721;28;1906;-67
2022/05/03 08:00:20;;;;;;;;;;;18.10;99.90;;;17.79;50.95;95435.50;10450143;28;1876;-66
2022/05/03 08:05:24;;;;;;;;;;;18.30;99.90;;;18.13;50.28;95433.72;10445275;28;2221;-68
2022/05/03 08:10:26;;;;;;;;;;;18.60;99.90;;;17.88;49.67;95437.38;10431727;28;1863;-67
2022/05/03 08:15:29;;;;;;;;;;;18.50;99.90;;;17.92;49.89;95443.78;10451606;28;1993;-67
2022/05/03 08:20:33;;;;;;;;;;;18.60;99.90;;;17.70;50.86;95436.66;10455158;28;2090;-68
2022/05/03 08:25:37;;;;;;;;;;;18.60;99.90;;;17.59;50.63;95449.00;10436295;28;1953;-69
2022/05/03 08:30:41;;;;;;;;;;;18.60;99.90;;;17.16;51.85;95448.00;10448923;28;2206;-69
2022/05/03 08:35:44;;;;;;;;;;;18.40;99.90;;;17.00;52.98;95463.25;10453520;28;1946;-69
2022/05/03 08:46:10;;;;;;;;;;;17.80;99.90;;;16.62;53.93;95458.44;10420510;28;2346;-70
2022/05/03 08:51:14;;;;;;;;;;;17.80;99.90;;;16.37;55.51;95451.09;10451176;28;1859;-68
2022/05/03 08:56:17;;;;;;;;;;;17.50;99.90;;;17.34;52.85;95450.69;10434140;28;1977;-68
2022/05/03 09:01:20;;;;;;;;;;;17.90;99.90;;;17.81;50.35;95452.31;10433150;28;1839;-67
2022/05/03 09:06:23;;;;;;;;;;;18.30;99.90;;;17.95;50.24;95448.56;10431252;28;1772;-69
2022/05/03 09:11:27;;;;;;;;;;;18.60;99.90;;;17.72;51.49;95446.09;10430800;28;1697;-69
2022/05/03 09:16:30;;;;;;;;;;;18.60;99.90;;;18.19;48.77;95445.22;10429869;28;1946;-69
2022/05/03 09:26:54;;;;;;;;;;;19.20;99.90;;;18.53;47.31;95446.91;10446556;28;1889;-69
2022/05/03 09:31:57;;;;;;;;;;;19.40;99.90;;;17.86;48.60;95445.09;10419657;28;1992;-68
2022/05/03 09:37:02;;;;;;;;;;;19.10;99.90;;;17.76;47.86;95441.63;10420716;28;1868;-69
2022/05/03 09:42:11;;;;;;;;;;;18.90;99.90;;;17.70;47.21;95434.75;10432761;28;1954;-68
2022/05/03 09:47:14;;;;;;;;;;;18.80;99.90;;;17.73;47.54;95436.81;10424511;28;2195;-72
2022/05/03 09:52:17;;;;;;;;;;;18.60;99.90;;;18.19;47.44;95434.31;10413015;28;1934;-71
2022/05/03 09:57:21;;;;;;;;;;;19.00;99.90;;;18.85;45.22;95429.84;10425040;28;1899;-71
2022/05/03 10:02:25;;;;;;;;;;;19.60;99.90;;;18.71;48.11;95420.38;10421057;28;1884;-71
2022/05/03 10:07:29;;;;;;;;;;;19.80;99.90;;;18.18;49.12;95425.38;10429833;28;1946;-70
2022/05/03 10:12:32;;;;;;;;;;;19.60;99.90;;;17.29;51.83;95433.44;10425835;28;1935;-72
2022/05/03 10:23:10;;;;;;;;;;;18.60;99.90;;;17.73;49.93;95431.38;10253601;28;1888;-71
2022/05/03 10:28:13;;;;;;;;;;;18.70;99.90;;;18.46;48.39;95414.00;10395675;28;1853;-71
2022/05/03 10:33:16;;;;;;;;;;;19.20;99.90;;;18.62;47.82;95410.31;10417650;28;1990;-71
2022/05/03 10:38:19;;;;;;;;;;;19.70;99.90;;;18.88;47.09;95404.66;10433536;28;1801;-69
2022/05/03 10:43:22;;;;;;;;;;;19.60;99.90;;;18.74;45.50;95406.09;10414443;28;2408;-70
2022/05/03 10:48:26;;;;;;;;;;;19.60;99.90;;;18.71;45.48;95410.28;10426639;28;1916;-70
2022/05/03 10:53:28;;;;;;;;;;;19.90;99.90;;;19.36;43.38;95392.28;10406577;28;1945;-70
2022/05/03 10:58:32;;;;;;;;;;;20.00;99.90;;;19.61;41.93;95392.34;10435001;28;1896;-70
2022/05/03 11:03:35;;;;;;;;;;;20.40;99.90;;;19.94;40.61;95379.38;10415451;28;1752;-69
2022/05/03 11:08:38;;;;;;;;;;;21.20;99.90;;;19.53;45.70;95379.56;10437884;28;1801;-71
2022/05/03 11:13:41;;;;;;;;;;;21.50;99.90;;;18.83;47.66;95374.94;10415044;28;1926;-70
2022/05/03 11:18:44;;;;;;;;;;;20.60;99.90;;;18.43;48.67;95377.34;10434394;28;1809;-70
2022/05/03 11:23:47;;;;;;;;;;;19.90;99.90;;;17.96;49.76;95379.47;10413888;28;1894;-70
2022/05/03 11:28:51;;;;;;;;;;;19.20;99.90;;;18.09;50.73;95370.25;10419296;28;1826;-70
2022/05/03 11:33:55;;;;;;;;;;;19.40;99.90;;;18.01;52.01;95365.66;10437360;28;2012;-70
2022/05/03 11:38:58;;;;;;;;;;;19.00;99.90;;;18.00;53.97;95359.41;10417322;28;1913;-70
2022/05/03 11:44:01;;;;;;;;;;;18.90;99.90;;;17.86;55.70;95363.50;10435792;28;2315;-70
2022/05/03 11:49:04;;;;;;;;;;;18.80;99.90;;;18.11;53.33;95362.53;10432717;28;1786;-70
2022/05/03 11:59:28;;;;;;;;;;;19.70;99.90;;;18.79;48.61;95349.50;10438469;28;1760;-70
2022/05/03 12:04:31;;;;;;;;;;;20.10;99.90;;;19.04;47.78;95352.28;10438225;28;1884;-70
2022/05/03 12:09:35;;;;;;;;;;;20.00;99.90;;;18.44;49.01;95340.03;10440926;28;1843;-71
2022/05/03 12:14:42;;;;;;;;;;;19.80;99.90;;;18.40;49.64;95350.00;10446476;28;2018;-70
2022/05/03 12:19:45;;;;;;;;;;;19.60;99.90;;;18.59;50.16;95342.16;10419915;28;1875;-70
2022/05/03 12:24:49;;;;;;;;;;;19.50;99.90;;;18.10;51.09;95348.16;10421391;28;1823;-69
2022/05/03 12:29:52;;;;;;;;;;;19.40;99.90;;;17.86;52.79;95341.75;10422663;28;1793;-70
2022/05/03 12:34:57;;;;;;;;;;;19.00;99.90;;;17.69;52.84;95345.38;10421850;28;1910;-71
2022/05/03 12:40:00;;;;;;;;;;;18.70;99.90;;;18.08;51.84;95338.75;10422387;28;2199;-70
2022/05/03 12:45:06;;;;;;;;;;;19.20;99.90;;;18.46;50.29;95337.78;10438308;28;1867;-72
2022/05/03 12:50:09;;;;;;;;;;;19.20;99.90;;;19.26;47.82;95334.72;10436552;28;1871;-71
2022/05/03 12:55:12;;;;;;;;;;;19.80;99.90;;;19.18;47.28;95325.50;10437033;28;1981;-71
2022/05/03 13:00:16;;;;;;;;;;;20.30;99.90;;;19.31;45.99;95327.09;10423300;28;1840;-69
2022/05/03 13:05:19;;;;;;;;;;;20.40;99.90;;;19.59;45.48;95310.88;10438126;28;1843;-70
2022/05/03 13:10:22;;;;;;;;;;;20.60;99.90;;;19.04;46.08;95314.94;10436479;28;1801;-70
2022/05/03 13:15:25;;;;;;;;;;;20.60;99.90;;;19.41;45.16;95293.97;10431698;28;2308;-70
2022/05/03 13:20:28;;;;;;;;;;;20.60;99.90;;;19.84;44.11;95291.75;10423254;28;1925;-70
2022/05/03 13:25:37;;;;;;;;;;;20.70;99.90;;;20.22;42.82;95291.31;10409002;28;1908;-69
2022/05/03 13:30:40;;;;;;;;;;;21.00;99.90;;;20.65;41.23;95270.69;10413962;28;1994;-70
2022/05/03 13:41:04;;;;;;;;;;;21.30;99.90;;;20.65;40.61;95265.22;10430441;28;1878;-70
2022/05/03 13:46:06;;;;;;;;;;;21.50;99.90;;;20.82;40.88;95264.13;10433795;28;1889;-70
2022/05/03 13:51:09;;;;;;;;;;;21.30;99.90;;;20.54;41.71;95266.88;10420309;28;1863;-70
2022/05/03 13:56:16;;;;;;;;;;;21.60;99.90;;;19.21;43.81;95280.44;10430272;28;1983;-71
2022/05/03 14:01:19;;;;;;;;;;;20.80;99.90;;;18.84;44.06;95278.50;10416232;28;1774;-69
2022/05/03 14:06:23;;;;;;;;;;;20.60;99.90;;;19.10;43.71;95280.09;10424252;28;1858;-70
2022/05/03 14:11:26;;;;;;;;;;;20.20;99.90;;;20.12;40.46;95264.53;10427464;28;2311;-69
2022/05/03 14:16:31;;;;;;;;;;;20.30;99.90;;;20.43;39.33;95261.91;10420463;28;1997;-71
2022/05/03 14:21:34;;;;;;;;;;;21.30;99.90;;;21.10;37.37;95255.81;10423807;28;1821;-71
2022/05/03 14:26:38;;;;;;;;;;;21.70;99.90;;;20.31;40.20;95256.50;10417668;28;1848;-71
2022/05/03 14:31:43;;;;;;;;;;;21.90;99.90;;;19.94;41.06;95258.56;10412904;28;1808;-71
2022/05/03 14:36:47;;;;;;;;;;;21.20;99.90;;;19.76;41.63;95260.75;10434980;28;1989;-70
2022/05/03 14:41:49;;;;;;;;;;;21.10;99.90;;;19.85;40.56;95250.53;10415012;28;1888;-69
2022/05/03 14:46:53;;;;;;;;;;;20.70;99.90;;;20.23;39.18;95254.69;10432389;28;1789;-70
2022/05/03 14:51:58;;;;;;;;;;;21.20;99.90;;;19.74;41.13;95252.16;10413421;28;1823;-69
2022/05/03 15:07:44;;;;;;;;;;;20.60;99.90;;;20.50;39.56;95247.69;10444001;28;1848;-70
2022/05/03 15:12:47;;;;;;;;;;;21.20;99.90;;;20.59;38.66;95239.31;10440116;28;1829;-70
2022/05/03 15:17:50;;;;;;;;;;;21.60;99.90;;;20.32;38.42;95241.72;10458298;28;1914;-71
2022/05/03 15:28:14;;;;;;;;;;;21.70;99.90;;;19.80;40.43;95220.78;10457741;28;1941;-70
2022/05/03 15:33:17;;;;;;;;;;;21.10;99.90;;;19.96;40.68;95218.09;10443777;28;1969;-70
2022/05/03 15:38:20;;;;;;;;;;;21.20;99.90;;;19.92;40.50;95228.91;10466374;28;1861;-69
2022/05/03 15:43:23;;;;;;;;;;;21.00;99.90;;;19.61;40.73;95226.03;10458970;28;2325;-70
2022/05/03 15:48:25;;;;;;;;;;;21.00;99.90;;;20.05;38.59;95221.47;10439484;28;1821;-70
2022/05/03 15:53:29;;;;;;;;;;;20.90;99.90;;;20.38;38.59;95234.84;10431885;28;1922;-71
2022/05/03 15:58:32;;;;;;;;;;;21.10;99.90;;;20.22;38.69;95223.09;10457404;28;1815;-71
2022/05/03 16:03:36;;;;;;;;;;;21.40;99.90;;;20.25;39.26;95230.59;10453769;28;1846;-70
2022/05/03 16:08:39;;;;;;;;;;;21.10;99.90;;;20.09;39.54;95232.47;10437432;28;1872;-70
2022/05/03 16:13:42;;;;;;;;;;;21.30;99.90;;;19.58;41.13;95229.44;10452393;28;1909;-70
2022/05/03 16:18:45;;;;;;;;;;;20.80;99.90;;;19.57;41.22;95230.56;10433647;28;1559;-70
2022/05/03 16:23:48;;;;;;;;;;;20.50;99.90;;;19.19;41.89;95239.91;10431584;28;1987;-70
2022/05/03 16:28:52;;;;;;;;;;;20.50;99.90;;;19.20;42.21;95232.53;10432990;28;1867;-70
2022/05/03 16:33:56;;;;;;;;;;;20.20;99.90;;;19.15;42.17;95239.81;10430537;28;1910;-70
2022/05/03 16:44:22;;;;;;;;;;;20.20;99.90;;;18.80;42.39;95249.53;10422432;28;1781;-71
2022/05/03 16:49:25;;;;;;;;;;;20.10;99.90;;;18.48;42.83;95253.88;10447540;28;1817;-70
2022/05/03 16:54:28;;;;;;;;;;;19.80;99.90;;;18.44;43.01;95253.72;10444004;28;1915;-71
2022/05/03 16:59:31;;;;;;;;;;;19.60;99.90;;;18.32;43.20;95257.25;10424943;28;1801;-70
2022/05/03 17:04:34;;;;;;;;;;;19.40;99.90;;;18.26;43.59;95265.94;10420288;28;1886;-71
2022/05/03 17:09:37;;;;;;;;;;;19.30;99.90;;;18.20;43.73;95268.06;10423866;28;1815;-71
2022/05/03 17:14:40;;;;;;;;;;;19.20;99.90;;;18.17;44.01;95278.81;10435471;28;1991;-71
2022/05/03 17:19:46;;;;;;;;;;;19.10;99.90;;;18.00;46.40;95301.50;10418493;28;1806;-71
2022/05/03 17:24:49;;;;;;;;;;;19.10;99.90;;;17.49;50.74;95311.56;10428608;28;1847;-73
2022/05/03 17:29:54;;;;;;;;;;;18.80;99.90;;;17.07;50.95;95313.41;10451097;28;1869;-71
2022/05/03 17:34:57;;;;;;;;;;;18.30;99.90;;;16.87;51.32;95317.63;10418149;28;1995;-71
2022/05/03 17:40:01;;;;;;;;;;;18.10;99.90;;;16.54;51.87;95326.28;10442895;28;1888;-71
2022/05/03 17:45:04;;;;;;;;;;;17.80;99.90;;;16.39;51.97;95343.06;10438595;28;1837;-71
2022/05/03 17:50:07;;;;;;;;;;;17.80;99.90;;;16.10;52.30;95349.16;10429559;28;1892;-72
2022/05/03 17:55:11;;;;;;;;;;;17.40;99.90;;;15.86;52.33;95349.59;10420580;28;1976;-71
2022/05/03 18:00:14;;;;;;;;;;;17.30;99.90;;;15.35;65.67;95362.69;10443934;28;1832;-70
2022/05/03 18:05:17;;;;;;;;;;;16.80;99.90;;;14.09;93.45;95396.41;10428315;28;1860;-73
2022/05/03 18:10:21;;;;;;;;;;;;;;;12.26;100.00;95416.78;10437115;28;1798;-70
2022/05/03 18:15:24;;;;;;;;;;;;;;;11.55;100.00;95434.69;10456356;28;1918;-71
2022/05/03 18:20:28;;;;;;;;;;;;;;;11.28;100.00;95440.66;10430053;28;1896;-71
2022/05/03 18:25:31;;;;;;;;;;;12.40;99.90;;;11.13;100.00;95444.28;10432413;28;1897;-70
2022/05/03 18:30:34;;;;;;;;;;;12.00;99.90;;;11.18;100.00;95452.31;10433766;28;1884;-72
2022/05/03 18:35:37;;;;;;;;;;;11.90;99.90;;;11.18;100.00;95451.50;10429333;28;1987;-72
2022/05/03 18:40:41;;;;;;;;;;;11.90;99.90;;;11.12;100.00;95458.81;10444146;28;2226;-71
2022/05/03 18:45:44;;;;;;;;;;;11.80;99.90;;;11.09;100.00;95465.59;10449321;28;2222;-72
2022/05/03 18:50:47;;;;;;;;;;;11.70;99.90;;;11.12;100.00;95461.50;10449873;28;1698;-71
2022/05/03 18:55:50;;;;;;;;;;;11.80;99.90;;;11.11;100.00;95462.59;10433598;28;1918;-72
2022/05/03 19:00:53;;;;;;;;;;;11.80;99.90;;;11.23;100.00;95472.97;10453290;28;1804;-72
2022/05/03 19:05:56;;;;;;;;;;;11.90;99.90;;;11.25;100.00;95474.28;10440778;28;1872;-73
2022/05/03 19:10:59;;;;;;;;;;;12.10;99.90;;;11.24;100.00;95478.06;10426272;28;1770;-73
2022/05/03 19:16:04;;;;;;;;;;;12.00;99.90;;;11.12;100.00;95482.22;10448599;28;1983;-73
2022/05/03 19:21:09;;;;;;;;;;;11.90;99.90;;;11.01;100.00;95484.22;10432817;28;1576;-73
2022/05/03 19:31:45;;;;;;;;;;;11.70;99.90;;;10.96;100.00;95486.97;10399859;28;1815;-72
2022/05/03 19:36:48;;;;;;;;;;;11.70;99.90;;;11.01;100.00;95495.78;10425748;28;1914;-72
2022/05/03 19:41:51;;;;;;;;;;;11.80;99.90;;;11.10;100.00;95504.84;10433879;28;1848;-73
2022/05/03 19:46:54;;;;;;;;;;;11.70;99.90;;;11.21;100.00;95505.56;10429538;28;1821;-72
2022/05/03 19:51:57;;;;;;;;;;;11.80;99.90;;;11.08;100.00;95501.63;10441169;28;1827;-72
2022/05/03 19:57:00;;;;;;;;;;;11.80;99.90;;;10.99;100.00;95491.75;10436593;28;1984;-72
2022/05/03 20:02:05;;;;;;;;;;;11.70;99.90;;;10.89;100.00;95505.31;10436336;28;1764;-72
2022/05/03 20:07:09;;;;;;;;;;;11.60;99.90;;;10.85;100.00;95498.88;10434915;28;1756;-73
2022/05/03 20:12:14;;;;;;;;;;;11.60;99.90;;;10.75;100.00;95507.81;10455663;28;1788;-72
2022/05/03 20:17:19;;;;;;;;;;;11.60;99.90;;;10.74;100.00;95511.59;10437077;28;1918;-72
2022/05/03 20:22:23;;;;;;;;;;;;;;;10.70;100.00;95522.13;10453890;28;1830;-72
2022/05/03 20:27:26;;;;;;;;;;;;;;;10.74;100.00;95522.34;10440248;28;1820;-72
2022/05/03 20:32:29;;;;;;;;;;;11.40;99.90;;;10.84;100.00;95527.66;10434174;28;1875;-72
2022/05/03 20:37:33;;;;;;;;;;;;;;;10.82;100.00;95530.63;10450826;28;1984;-72
2022/05/03 20:42:37;;;;;;;;;;;;;;;10.85;100.00;95531.16;10455996;28;1784;-72
2022/05/03 20:53:01;;;;;;;;;;;11.90;99.90;;;10.96;100.00;95536.16;10429075;28;1785;-72
2022/05/03 20:58:06;;;;;;;;;;;11.90;99.90;;;11.03;100.00;95533.16;10455668;28;1981;-72
2022/05/03 21:03:09;;;;;;;;;;;11.90;99.90;;;11.08;100.00;95544.69;10428475;28;1803;-72
2022/05/03 21:08:11;;;;;;;;;;;12.00;99.90;;;11.15;100.00;95544.34;10450920;28;1558;-72
2022/05/03 21:13:15;;;;;;;;;;;12.10;99.90;;;11.23;100.00;95551.00;10450854;28;1776;-72
2022/05/03 21:18:18;;;;;;;;;;;12.10;99.90;;;11.27;100.00;95543.97;10430527;28;1930;-72
2022/05/03 21:23:22;;;;;;;;;;;12.20;99.90;;;11.33;100.00;95543.66;10431461;28;1946;-73
2022/05/03 21:28:25;;;;;;;;;;;12.20;99.90;;;11.34;100.00;95553.31;10416442;28;1778;-74
2022/05/03 21:33:28;;;;;;;;;;;12.30;99.90;;;11.30;100.00;95546.91;10433277;28;1742;-73
2022/05/03 21:38:31;;;;;;;;;;;12.30;99.90;;;11.25;100.00;95538.06;10413203;28;1914;-72
2022/05/03 21:43:34;;;;;;;;;;;12.30;99.90;;;11.18;100.00;95538.38;10431949;28;1753;-72
2022/05/03 21:48:37;;;;;;;;;;;12.20;99.90;;;11.25;100.00;95536.16;10439429;28;1847;-72
2022/05/03 21:53:40;;;;;;;;;;;12.20;99.90;;;11.25;100.00;95527.31;10417699;28;1915;-72
2022/05/03 21:58:43;;;;;;;;;;;12.20;99.90;;;11.20;100.00;95522.78;10429416;28;1910;-73
2022/05/03 22:03:47;;;;;;;;;;;12.20;99.90;;;11.16;100.00;95523.63;10435638;28;1915;-72
2022/05/03 22:08:50;;;;;;;;;;;12.20;99.90;;;11.11;100.00;95535.22;10417442;28;1812;-73
2022/05/03 22:13:54;;;;;;;;;;;12.10;99.90;;;11.11;100.00;95532.53;10418304;28;1935;-73
2022/05/03 22:18:57;;;;;;;;;;;12.10;99.90;;;11.12;100.00;95547.59;10421015;28;1915;-73
2022/05/03 22:24:01;;;;;;;;;;;12.10;99.90;;;11.14;100.00;95553.50;10433774;28;1993;-73
2022/05/03 22:29:04;;;;;;;;;;;12.10;99.90;;;11.13;100.00;95557.25;10422293;28;1780;-72
2022/05/03 22:34:07;;;;;;;;;;;12.10;99.90;;;11.09;100.00;95548.16;10416948;28;1950;-72
2022/05/03 22:39:10;;;;;;;;;;;12.20;99.90;;;11.05;100.00;95555.19;10439460;28;1921;-72
2022/05/03 22:44:13;;;;;;;;;;;12.20;99.90;;;11.00;100.00;95557.91;10427274;28;2198;-72
2022/05/03 22:49:16;;;;;;;;;;;12.10;99.90;;;10.97;100.00;95564.66;10420790;28;1827;-72
2022/05/03 22:54:20;;;;;;;;;;;12.10;99.90;;;10.92;100.00;95567.38;10447826;28;1976;-72
2022/05/03 22:59:23;;;;;;;;;;;12.10;99.90;;;10.86;100.00;95575.78;10432976;28;1989;-72
2022/05/03 23:04:26;;;;;;;;;;;12.00;99.90;;;10.78;100.00;95575.28;10439297;28;1884;-72
2022/05/03 23:09:30;;;;;;;;;;;11.90;99.90;;;10.67;100.00;95581.00;10433326;28;1814;-72
2022/05/03 23:14:33;;;;;;;;;;;11.80;99.90;;;10.58;100.00;95572.75;10445415;28;1895;-72
2022/05/03 23:19:36;;;;;;;;;;;11.70;99.90;;;10.54;100.00;95582.44;10436803;28;1918;-72
2022/05/03 23:24:39;;;;;;;;;;;11.70;99.90;;;10.45;100.00;95573.34;10429982;28;2100;-72
2022/05/03 23:29:42;;;;;;;;;;;11.60;99.90;;;10.47;100.00;95579.25;10426761;28;2225;-71
2022/05/03 23:40:05;;;;;;;;;;;11.50;99.90;;;10.57;100.00;95587.25;10445668;28;1921;-72
2022/05/03 23:50:30;;;;;;;;;;;11.70;99.90;;;10.67;100.00;95587.19;10423213;28;1685;-71
2022/05/03 23:55:33;;;;;;;;;;;11.70;99.90;;;10.69;100.00;95582.34;10453601;28;1985;-71
